createdAt,value
2018-07-02T00:00:29.573Z,15.30
2018-07-02T00:02:59.050Z,15.20
2018-07-02T00:05:39.436Z,15.10
2018-07-02T00:08:08.888Z,15.10
2018-07-02T00:10:38.255Z,15.10
2018-07-02T00:13:07.684Z,15.00
2018-07-02T00:15:37.049Z,15.00
2018-07-02T00:18:06.441Z,15.00
2018-07-02T00:20:35.900Z,15.00
2018-07-02T00:23:05.630Z,15.10
2018-07-02T00:28:03.963Z,15.00
2018-07-02T00:30:33.363Z,14.90
2018-07-02T00:33:02.793Z,14.80
2018-07-02T00:35:32.183Z,14.90
2018-07-02T00:38:01.549Z,14.90
2018-07-02T00:40:30.984Z,14.80
2018-07-02T00:43:00.329Z,14.90
2018-07-02T00:45:29.680Z,14.90
2018-07-02T00:47:59.066Z,14.80
2018-07-02T00:50:28.492Z,14.70
2018-07-02T00:52:57.858Z,14.70
2018-07-02T00:55:27.269Z,14.60
2018-07-02T00:57:56.643Z,14.60
2018-07-02T01:00:26.109Z,14.60
2018-07-02T01:02:55.497Z,14.60
2018-07-02T01:05:24.947Z,14.50
2018-07-02T01:07:54.362Z,14.60
2018-07-02T01:10:23.790Z,14.50
2018-07-02T01:12:53.172Z,14.40
2018-07-02T01:15:22.659Z,14.50
2018-07-02T01:17:52.059Z,14.50
2018-07-02T01:20:21.464Z,14.50
2018-07-02T01:22:50.860Z,14.50
2018-07-02T01:25:20.299Z,14.40
2018-07-02T01:27:49.700Z,14.50
2018-07-02T01:30:19.122Z,14.40
2018-07-02T01:32:48.497Z,14.40
2018-07-02T01:35:17.916Z,14.20
2018-07-02T01:37:47.307Z,14.00
2018-07-02T01:40:16.715Z,13.90
2018-07-02T01:42:46.132Z,14.00
2018-07-02T01:45:15.527Z,14.10
2018-07-02T01:47:44.905Z,14.10
2018-07-02T01:50:14.342Z,14.10
2018-07-02T01:52:43.740Z,14.20
2018-07-02T01:55:13.145Z,14.10
2018-07-02T01:57:42.527Z,14.00
2018-07-02T02:00:11.879Z,13.90
2018-07-02T02:02:41.508Z,13.80
2018-07-02T02:05:10.892Z,13.80
2018-07-02T02:07:40.279Z,13.70
2018-07-02T02:12:38.582Z,13.80
2018-07-02T02:15:08.336Z,13.80
2018-07-02T02:17:37.742Z,13.50
2018-07-02T02:20:07.108Z,13.30
2018-07-02T02:22:36.546Z,13.30
2018-07-02T02:25:06.359Z,13.10
2018-07-02T02:27:35.735Z,13.00
2018-07-02T02:30:05.971Z,13.00
2018-07-02T02:32:35.507Z,13.00
2018-07-02T02:35:05.102Z,13.00
2018-07-02T02:37:34.560Z,13.10
2018-07-02T02:40:04.002Z,13.10
2018-07-02T02:42:33.364Z,13.00
2018-07-02T02:45:02.708Z,13.00
2018-07-02T02:47:32.079Z,13.00
2018-07-02T02:50:01.399Z,12.90
2018-07-02T02:52:30.816Z,13.00
2018-07-02T02:55:00.132Z,12.90
2018-07-02T02:57:29.509Z,12.60
2018-07-02T02:59:58.879Z,12.50
2018-07-02T03:02:28.267Z,12.10
2018-07-02T03:04:57.575Z,12.20
2018-07-02T03:07:26.984Z,12.30
2018-07-02T03:09:56.336Z,12.40
2018-07-02T03:12:25.845Z,12.60
2018-07-02T03:17:24.159Z,12.60
2018-07-02T03:19:53.554Z,12.40
2018-07-02T03:22:22.919Z,12.10
2018-07-02T03:24:52.604Z,12.30
2018-07-02T03:27:21.961Z,12.40
2018-07-02T03:32:20.301Z,12.40
2018-07-02T03:34:49.771Z,12.40
2018-07-02T03:37:19.108Z,12.50
2018-07-02T03:39:48.500Z,12.50
2018-07-02T03:42:17.882Z,12.50
2018-07-02T03:44:47.714Z,12.40
2018-07-02T03:47:17.098Z,12.40
2018-07-02T03:49:46.478Z,12.10
2018-07-02T03:52:15.944Z,12.10
2018-07-02T03:54:45.322Z,12.20
2018-07-02T03:59:43.607Z,12.30
2018-07-02T04:02:12.936Z,12.40
2018-07-02T04:04:42.359Z,12.30
2018-07-02T04:07:11.710Z,12.40
2018-07-02T04:09:41.123Z,12.50
2018-07-02T04:14:39.430Z,12.70
2018-07-02T04:17:08.751Z,12.80
2018-07-02T04:22:07.047Z,13.00
2018-07-02T04:24:36.370Z,13.00
2018-07-02T04:27:05.858Z,13.20
2018-07-02T04:29:35.535Z,13.30
2018-07-02T04:32:04.954Z,13.30
2018-07-02T04:34:34.286Z,13.40
2018-07-02T04:37:03.688Z,13.20
2018-07-02T04:39:33.042Z,13.20
2018-07-02T04:42:02.491Z,13.20
2018-07-02T04:44:31.852Z,13.40
2018-07-02T04:47:01.257Z,13.70
2018-07-02T04:49:30.621Z,14.00
2018-07-02T04:51:59.980Z,14.30
2018-07-02T04:54:29.339Z,14.50
2018-07-02T04:56:58.692Z,14.60
2018-07-02T04:59:28.056Z,14.60
2018-07-02T05:01:57.430Z,14.70
2018-07-02T05:04:26.722Z,14.80
2018-07-02T05:06:56.090Z,14.80
2018-07-02T05:09:25.436Z,14.90
2018-07-02T05:11:54.819Z,15.10
2018-07-02T05:14:24.127Z,15.20
2018-07-02T05:16:53.499Z,15.40
2018-07-02T05:19:22.791Z,15.50
2018-07-02T05:21:52.147Z,15.70
2018-07-02T05:24:21.456Z,15.80
2018-07-02T05:26:50.817Z,15.90
2018-07-02T05:29:20.130Z,15.90
2018-07-02T05:31:49.480Z,16.10
2018-07-02T05:34:18.939Z,16.40
2018-07-02T05:36:48.259Z,16.60
2018-07-02T05:39:17.600Z,16.60
2018-07-02T05:41:46.928Z,16.60
2018-07-02T05:44:16.250Z,16.70
2018-07-02T05:49:14.505Z,16.90
2018-07-02T05:51:43.892Z,17.00
2018-07-02T05:54:13.305Z,17.10
2018-07-02T05:56:42.615Z,17.20
2018-07-02T05:59:11.949Z,17.10
2018-07-02T06:01:41.275Z,17.00
2018-07-02T06:04:10.612Z,17.30
2018-07-02T06:06:39.971Z,17.50
2018-07-02T06:09:10.956Z,17.90
2018-07-02T06:11:40.752Z,18.10
2018-07-02T06:14:11.176Z,18.10
2018-07-02T06:16:40.882Z,18.20
2018-07-02T06:19:10.256Z,18.20
2018-07-02T06:21:39.609Z,18.30
2018-07-02T06:24:08.931Z,18.20
2018-07-02T06:26:38.637Z,18.80
2018-07-02T06:29:07.987Z,19.20
2018-07-02T06:31:37.341Z,19.40
2018-07-02T06:36:35.525Z,19.40
2018-07-02T06:39:08.120Z,19.60
2018-07-02T06:41:37.449Z,19.60
2018-07-02T06:44:06.816Z,19.70
2018-07-02T06:46:36.146Z,19.40
2018-07-02T06:49:05.872Z,19.60
2018-07-02T06:51:35.201Z,19.80
2018-07-02T06:54:04.592Z,20.10
2018-07-02T06:56:33.927Z,20.20
2018-07-02T06:59:03.299Z,19.60
2018-07-02T07:01:32.610Z,19.70
2018-07-02T07:04:01.949Z,19.80
2018-07-02T07:06:31.319Z,20.10
2018-07-02T07:09:00.680Z,19.60
2018-07-02T07:11:30.068Z,19.90
2018-07-02T07:13:59.387Z,20.00
2018-07-02T07:16:28.767Z,20.20
2018-07-02T07:18:58.083Z,20.10
2018-07-02T07:21:27.426Z,19.90
2018-07-02T07:23:56.779Z,20.10
2018-07-02T07:26:26.509Z,20.20
2018-07-02T07:28:55.859Z,20.20
2018-07-02T07:31:25.265Z,20.40
2018-07-02T07:33:54.576Z,20.90
2018-07-02T07:36:23.913Z,20.30
2018-07-02T07:38:53.204Z,19.90
2018-07-02T07:41:22.554Z,19.90
2018-07-02T07:43:51.888Z,19.90
2018-07-02T07:46:21.264Z,20.40
2018-07-02T07:48:50.571Z,21.10
2018-07-02T07:51:19.950Z,21.30
2018-07-02T07:53:49.278Z,21.90
2018-07-02T07:56:18.634Z,22.00
2018-07-02T07:58:47.948Z,22.10
2018-07-02T08:01:17.352Z,22.60
2018-07-02T08:03:47.440Z,22.60
2018-07-02T08:06:16.951Z,23.10
2018-07-02T08:08:46.314Z,23.40
2018-07-02T08:11:15.760Z,22.80
2018-07-02T08:13:45.095Z,22.00
2018-07-02T08:16:14.457Z,21.90
2018-07-02T08:18:44.232Z,22.70
2018-07-02T08:21:13.629Z,23.40
2018-07-02T08:23:42.943Z,23.80
2018-07-02T08:26:12.389Z,23.70
2018-07-02T08:28:41.720Z,23.20
2018-07-02T08:31:11.097Z,23.30
2018-07-02T08:33:41.233Z,23.80
2018-07-02T08:36:10.598Z,23.60
2018-07-02T08:38:39.939Z,23.30
2018-07-02T08:41:09.315Z,23.70
2018-07-02T08:43:39.048Z,23.40
2018-07-02T08:46:08.436Z,23.30
2018-07-02T08:48:37.759Z,23.50
2018-07-02T08:53:36.165Z,23.30
2018-07-02T08:56:05.561Z,24.30
2018-07-02T08:58:35.217Z,25.20
2018-07-02T09:01:04.657Z,25.10
2018-07-02T09:03:40.679Z,24.80
2018-07-02T09:06:10.024Z,24.20
2018-07-02T09:08:39.435Z,24.80
2018-07-02T09:11:08.764Z,25.00
2018-07-02T09:13:38.144Z,25.30
2018-07-02T09:16:07.552Z,25.10
2018-07-02T09:18:37.243Z,25.70
2018-07-02T09:21:06.788Z,26.30
2018-07-02T09:23:36.125Z,26.40
2018-07-02T09:26:05.532Z,26.30
2018-07-02T09:28:34.860Z,26.40
2018-07-02T09:31:04.295Z,24.90
2018-07-02T09:33:33.632Z,25.20
2018-07-02T09:38:31.882Z,26.40
2018-07-02T09:41:01.203Z,26.20
2018-07-02T09:43:30.585Z,25.60
2018-07-02T09:45:59.913Z,24.80
2018-07-02T09:48:29.258Z,25.70
2018-07-02T09:50:58.563Z,26.60
2018-07-02T09:53:28.035Z,27.50
2018-07-02T09:55:57.375Z,28.00
2018-07-02T09:58:26.695Z,27.90
2018-07-02T10:00:56.020Z,27.70
2018-07-02T10:03:25.725Z,28.10
2018-07-02T10:05:55.068Z,27.70
2018-07-02T10:08:24.490Z,27.20
2018-07-02T10:10:53.873Z,27.50
2018-07-02T10:13:23.215Z,28.00
2018-07-02T10:15:52.555Z,28.30
2018-07-02T10:18:21.940Z,28.40
2018-07-02T10:20:51.292Z,29.00
2018-07-02T10:23:20.642Z,28.30
2018-07-02T10:25:50.117Z,27.80
2018-07-02T10:28:19.464Z,28.20
2018-07-02T10:30:48.919Z,28.50
2018-07-02T10:33:18.238Z,28.60
2018-07-02T10:38:16.475Z,27.30
2018-07-02T10:40:45.840Z,27.30
2018-07-02T10:45:44.083Z,27.40
2018-07-02T10:48:13.423Z,27.90
2018-07-02T10:50:42.823Z,27.00
2018-07-02T10:55:41.323Z,28.40
2018-07-02T10:58:10.650Z,28.50
2018-07-02T11:00:40.025Z,28.60
2018-07-02T11:03:09.360Z,28.80
2018-07-02T11:05:38.756Z,28.50
2018-07-02T11:08:08.123Z,28.80
2018-07-02T11:10:37.512Z,27.90
2018-07-02T11:13:11.856Z,28.40
2018-07-02T11:15:42.658Z,28.00
2018-07-02T11:18:11.964Z,28.60
2018-07-02T11:20:42.069Z,29.00
2018-07-02T11:23:11.435Z,29.00
2018-07-02T11:25:40.847Z,29.30
2018-07-02T11:28:10.545Z,28.60
2018-07-02T11:30:39.885Z,28.60
2018-07-02T11:33:09.253Z,28.70
2018-07-02T11:35:38.583Z,28.90
2018-07-02T11:38:07.895Z,29.50
2018-07-02T11:40:37.251Z,29.60
2018-07-02T11:43:07.031Z,29.60
2018-07-02T11:45:36.387Z,29.00
2018-07-02T11:48:05.773Z,28.90
2018-07-02T11:50:35.188Z,29.20
2018-07-02T11:53:04.575Z,29.80
2018-07-02T11:55:33.947Z,29.90
2018-07-02T11:58:03.306Z,29.80
2018-07-02T12:00:32.628Z,29.40
2018-07-02T12:03:02.024Z,29.40
2018-07-02T12:05:31.343Z,29.20
2018-07-02T12:08:00.733Z,29.20
2018-07-02T12:10:30.100Z,29.80
2018-07-02T12:12:59.476Z,29.60
2018-07-02T12:15:28.810Z,30.30
2018-07-02T12:17:58.151Z,30.40
2018-07-02T12:20:27.528Z,30.00
2018-07-02T12:22:56.883Z,30.30
2018-07-02T12:27:55.119Z,29.70
2018-07-02T12:30:24.426Z,30.10
2018-07-02T12:32:54.276Z,30.10
2018-07-02T12:35:23.596Z,29.80
2018-07-02T12:37:52.899Z,29.60
2018-07-02T12:40:22.275Z,30.10
2018-07-02T12:42:51.603Z,28.90
2018-07-02T12:45:23.142Z,28.40
2018-07-02T12:47:53.573Z,28.90
2018-07-02T12:50:22.950Z,29.10
2018-07-02T12:52:52.528Z,29.80
2018-07-02T12:55:21.880Z,29.70
2018-07-02T12:57:51.238Z,30.00
2018-07-02T13:00:20.595Z,30.30
2018-07-02T13:02:49.948Z,29.90
2018-07-02T13:05:19.308Z,28.70
2018-07-02T13:07:48.686Z,29.10
2018-07-02T13:10:18.076Z,29.50
2018-07-02T13:12:47.446Z,29.50
2018-07-02T13:15:16.821Z,30.00
2018-07-02T13:17:46.184Z,30.30
2018-07-02T13:20:15.583Z,30.10
2018-07-02T13:22:44.923Z,30.10
2018-07-02T13:25:14.309Z,30.00
2018-07-02T13:27:43.672Z,29.90
2018-07-02T13:30:13.103Z,30.10
2018-07-02T13:32:42.465Z,29.70
2018-07-02T13:35:11.860Z,29.60
2018-07-02T13:37:41.266Z,29.30
2018-07-02T13:40:10.587Z,28.90
2018-07-02T13:42:39.972Z,28.80
2018-07-02T13:45:09.384Z,28.90
2018-07-02T13:47:39.153Z,28.30
2018-07-02T13:50:08.536Z,28.40
2018-07-02T13:52:37.934Z,28.40
2018-07-02T13:55:07.543Z,28.30
2018-07-02T13:57:36.936Z,28.20
2018-07-02T14:00:06.446Z,28.10
2018-07-02T14:02:35.925Z,27.90
2018-07-02T14:05:05.370Z,27.80
2018-07-02T14:07:34.855Z,27.50
2018-07-02T14:10:04.676Z,27.40
2018-07-02T14:12:34.035Z,27.30
2018-07-02T14:15:03.399Z,27.20
2018-07-02T14:17:32.793Z,26.90
2018-07-02T14:20:02.192Z,27.10
2018-07-02T14:22:31.533Z,27.00
2018-07-02T14:25:00.919Z,26.80
2018-07-02T14:27:30.289Z,26.30
2018-07-02T14:30:00.035Z,26.10
2018-07-02T14:32:29.392Z,26.10
2018-07-02T14:34:58.743Z,26.30
2018-07-02T14:37:28.117Z,26.60
2018-07-02T14:39:57.474Z,26.70
2018-07-02T14:42:26.859Z,26.80
2018-07-02T14:44:56.255Z,26.60
2018-07-02T14:47:26.016Z,26.50
2018-07-02T14:49:55.397Z,26.80
2018-07-02T14:52:24.832Z,26.70
2018-07-02T14:54:54.184Z,26.50
2018-07-02T14:57:23.583Z,26.20
2018-07-02T14:59:52.940Z,26.20
2018-07-02T15:02:22.303Z,25.90
2018-07-02T15:04:51.648Z,25.70
2018-07-02T15:07:21.044Z,25.60
2018-07-02T15:09:50.470Z,25.80
2018-07-02T15:12:19.800Z,25.90
2018-07-02T15:14:49.183Z,25.90
2018-07-02T15:22:16.308Z,25.90
2018-07-02T15:24:46.089Z,25.70
2018-07-02T15:27:15.500Z,25.60
2018-07-02T15:29:45.280Z,25.50
2018-07-02T15:32:14.650Z,25.40
2018-07-02T15:34:44.347Z,25.20
2018-07-02T15:37:14.094Z,25.00
2018-07-02T15:39:43.467Z,25.10
2018-07-02T15:42:12.806Z,24.90
2018-07-02T15:44:42.204Z,25.00
2018-07-02T15:47:11.561Z,25.20
2018-07-02T15:52:09.844Z,25.20
2018-07-02T15:54:39.217Z,25.20
2018-07-02T15:57:08.568Z,25.30
2018-07-02T15:59:37.947Z,25.30
2018-07-02T16:02:07.310Z,25.40
2018-07-02T16:04:36.679Z,25.10
2018-07-02T16:07:06.065Z,25.30
2018-07-02T16:09:35.481Z,25.20
2018-07-02T16:12:04.826Z,25.20
2018-07-02T16:14:34.195Z,25.20
2018-07-02T16:17:03.545Z,25.10
2018-07-02T16:19:32.902Z,25.10
2018-07-02T16:22:02.264Z,25.10
2018-07-02T16:24:31.619Z,25.10
2018-07-02T16:27:00.960Z,25.00
2018-07-02T16:32:00.166Z,24.90
2018-07-02T16:34:29.487Z,24.90
2018-07-02T16:39:27.755Z,24.90
2018-07-02T16:41:57.180Z,24.80
2018-07-02T16:44:26.512Z,24.90
2018-07-02T16:46:55.932Z,24.90
2018-07-02T16:49:25.262Z,25.00
2018-07-02T16:54:23.524Z,24.80
2018-07-02T16:56:52.928Z,24.80
2018-07-02T16:59:22.285Z,24.80
2018-07-02T17:01:51.671Z,24.80
2018-07-02T17:04:21.031Z,24.90
2018-07-02T17:06:50.436Z,24.80
2018-07-02T17:09:19.823Z,24.90
2018-07-02T17:11:49.240Z,24.70
2018-07-02T17:14:18.547Z,24.60
2018-07-02T17:16:47.893Z,24.60
2018-07-02T17:19:17.276Z,24.70
2018-07-02T17:21:47.068Z,24.70
2018-07-02T17:24:16.473Z,24.70
2018-07-02T17:26:45.828Z,24.60
2018-07-02T17:29:15.220Z,24.60
2018-07-02T17:31:44.581Z,24.50
2018-07-02T17:34:14.004Z,24.40
2018-07-02T17:36:43.369Z,24.50
2018-07-02T17:39:12.730Z,24.50
2018-07-02T17:41:42.096Z,24.50
2018-07-02T17:44:11.500Z,24.40
2018-07-02T17:46:40.869Z,24.40
2018-07-02T17:49:10.248Z,24.40
2018-07-02T17:51:39.916Z,24.30
2018-07-02T17:54:09.276Z,24.30
2018-07-02T17:56:38.640Z,24.30
2018-07-02T17:59:08.084Z,24.30
2018-07-02T18:01:37.450Z,24.10
2018-07-02T18:04:06.896Z,24.10
2018-07-02T18:06:36.249Z,24.00
2018-07-02T18:09:08.775Z,24.10
2018-07-02T18:14:07.696Z,24.10
2018-07-02T18:16:37.059Z,24.00
2018-07-02T18:19:06.562Z,23.90
2018-07-02T18:21:36.152Z,23.80
2018-07-02T18:24:05.504Z,23.80
2018-07-02T18:26:34.883Z,23.80
2018-07-02T18:29:04.255Z,23.70
2018-07-02T18:31:33.624Z,23.70
2018-07-02T18:34:03.001Z,23.80
2018-07-02T18:36:32.324Z,23.60
2018-07-02T18:39:01.732Z,23.60
2018-07-02T18:41:31.082Z,23.50
2018-07-02T18:44:00.479Z,23.50
2018-07-02T18:46:29.832Z,23.40
2018-07-02T18:48:59.439Z,23.30
2018-07-02T18:51:28.775Z,23.20
2018-07-02T18:53:58.188Z,23.00
2018-07-02T18:58:56.900Z,23.10
2018-07-02T19:01:26.372Z,23.10
2018-07-02T19:03:55.746Z,23.00
2018-07-02T19:06:25.172Z,22.90
2018-07-02T19:08:54.588Z,22.80
2018-07-02T19:11:24.295Z,22.70
2018-07-02T19:13:53.644Z,22.60
2018-07-02T19:16:23.099Z,22.50
2018-07-02T19:18:52.429Z,22.30
2018-07-02T19:21:21.848Z,22.20
2018-07-02T19:23:51.225Z,22.10
2018-07-02T19:26:20.572Z,21.90
2018-07-02T19:28:49.900Z,22.00
2018-07-02T19:31:19.316Z,21.90
2018-07-02T19:33:49.392Z,21.90
2018-07-02T19:36:18.774Z,21.90
2018-07-02T19:38:48.121Z,21.70
2018-07-02T19:41:17.457Z,21.70
2018-07-02T19:43:46.848Z,21.60
2018-07-02T19:46:16.228Z,21.60
2018-07-02T19:51:14.477Z,21.40
2018-07-02T19:53:43.818Z,21.40
2018-07-02T19:56:13.189Z,21.30
2018-07-02T19:58:42.886Z,21.10
2018-07-02T20:01:12.368Z,21.20
2018-07-02T20:03:41.808Z,21.10
2018-07-02T20:06:11.110Z,21.00
2018-07-02T20:08:40.528Z,20.90
2018-07-02T20:11:09.871Z,20.90
2018-07-02T20:13:39.272Z,20.80
2018-07-02T20:16:08.708Z,20.80
2018-07-02T20:18:38.608Z,20.80
2018-07-02T20:21:08.006Z,20.80
2018-07-02T20:23:37.719Z,20.70
2018-07-02T20:26:07.062Z,20.70
2018-07-02T20:28:36.432Z,20.70
2018-07-02T20:31:05.981Z,20.60
2018-07-02T20:33:35.779Z,20.60
2018-07-02T20:36:05.352Z,20.60
2018-07-02T20:38:34.704Z,20.50
2018-07-02T20:41:04.024Z,20.40
2018-07-02T20:43:33.389Z,20.50
2018-07-02T20:46:02.736Z,20.50
2018-07-02T20:48:32.107Z,20.40
2018-07-02T20:51:01.445Z,20.40
2018-07-02T20:53:30.854Z,20.30
2018-07-02T20:56:00.493Z,20.30
2018-07-02T21:00:58.803Z,20.10
2018-07-02T21:03:28.215Z,20.00
2018-07-02T21:05:57.645Z,20.00
2018-07-02T21:08:27.065Z,20.00
2018-07-02T21:13:25.312Z,19.90
2018-07-02T21:15:54.754Z,19.90
2018-07-02T21:18:24.108Z,19.90
2018-07-02T21:20:53.484Z,19.90
2018-07-02T21:23:22.845Z,19.80
2018-07-02T21:25:52.191Z,19.80
2018-07-02T21:28:21.586Z,19.70
2018-07-02T21:30:50.950Z,19.60
2018-07-02T21:33:20.284Z,19.60
2018-07-02T21:35:49.636Z,19.60
2018-07-02T21:38:18.979Z,19.60
2018-07-02T21:40:48.355Z,19.50
2018-07-02T21:43:17.663Z,19.40
2018-07-02T21:45:47.056Z,19.40
2018-07-02T21:48:16.440Z,19.30
2018-07-02T21:50:45.929Z,19.40
2018-07-02T21:53:15.350Z,19.30
2018-07-02T21:55:44.740Z,19.30
2018-07-02T21:58:14.111Z,19.30
2018-07-02T22:00:45.411Z,19.20
2018-07-02T22:08:12.676Z,19.10
2018-07-02T22:10:42.075Z,18.90
2018-07-02T22:13:11.486Z,18.80
2018-07-02T22:15:40.944Z,18.50
2018-07-02T22:18:10.299Z,18.20
2018-07-02T22:23:08.591Z,18.00
2018-07-02T22:25:37.961Z,17.70
2018-07-02T22:28:07.356Z,17.60
2018-07-02T22:30:36.739Z,17.40
2018-07-02T22:33:06.119Z,17.20
2018-07-02T22:35:35.479Z,17.00
2018-07-02T22:38:04.856Z,17.10
2018-07-02T22:40:34.262Z,17.30
2018-07-02T22:43:03.635Z,17.30
2018-07-02T22:45:32.996Z,17.40
2018-07-02T22:48:02.360Z,17.40
2018-07-02T22:50:31.735Z,17.40
2018-07-02T22:53:01.093Z,17.50
2018-07-02T22:55:31.259Z,17.70
2018-07-02T22:58:00.655Z,17.70
2018-07-02T23:00:30.008Z,17.70
2018-07-02T23:02:59.395Z,17.70
2018-07-02T23:05:28.786Z,17.70
2018-07-02T23:07:58.176Z,17.60
2018-07-02T23:10:27.613Z,17.40
2018-07-02T23:12:56.959Z,17.30
2018-07-02T23:15:26.279Z,17.20
2018-07-02T23:17:55.615Z,17.20
2018-07-02T23:23:00.543Z,17.00
2018-07-02T23:25:30.226Z,17.10
2018-07-02T23:28:00.838Z,17.20
2018-07-02T23:33:00.832Z,17.10
2018-07-02T23:35:30.269Z,17.10
2018-07-02T23:37:59.649Z,17.10
2018-07-02T23:40:29.020Z,16.90
2018-07-02T23:42:58.377Z,16.90
2018-07-02T23:45:27.674Z,16.80
2018-07-02T23:47:56.994Z,16.80
2018-07-02T23:50:26.339Z,16.80
2018-07-02T23:52:55.632Z,16.60
2018-07-02T23:55:24.960Z,16.60
2018-07-02T23:57:54.291Z,16.50
